Time;durP1;ratioP1;P1;durP2;ratioP2;P2;SDS_P1;SDS_P2;PMS_P1;PMS_P2;Temp;Humidity;BMP_temperature;BMP_pressure;BME280_temperature;BME280_humidity;BME280_pressure;Samples;Min_cycle;Max_cycle;Signal;HPM_P1;HPM_P2
2022/03/16 00:01:03;;;;;;;16.03;13.33;;;5.60;99.90;;;;;;6005042;23;20532;-68
2022/03/16 00:03:52;;;;;;;17.00;13.67;;;5.50;99.90;;;;;;6003836;23;22810;-68
2022/03/16 00:06:40;;;;;;;15.50;13.40;;;5.50;99.90;;;;;;6014885;23;20414;-69
2022/03/16 00:09:29;;;;;;;18.10;13.70;;;5.50;99.90;;;;;;5996504;23;20421;-68
2022/03/16 00:12:18;;;;;;;17.37;13.73;;;5.40;99.90;;;;;;6001609;23;20473;-69
2022/03/16 00:15:07;;;;;;;16.33;13.60;;;5.30;99.90;;;;;;6001727;23;21041;-68
2022/03/16 00:17:56;;;;;;;16.17;12.83;;;5.30;99.90;;;;;;6004589;23;20428;-68
2022/03/16 00:20:44;;;;;;;21.53;15.60;;;5.30;99.90;;;;;;6004065;23;20452;-68
2022/03/16 00:23:33;;;;;;;16.80;14.00;;;5.30;99.90;;;;;;6002310;23;20956;-68
2022/03/16 00:26:22;;;;;;;19.17;14.63;;;5.30;99.90;;;;;;6003331;23;20505;-68
2022/03/16 00:29:11;;;;;;;19.17;14.63;;;5.20;99.90;;;;;;5997169;23;20483;-68
2022/03/16 00:31:59;;;;;;;18.43;14.43;;;5.20;99.90;;;;;;6000819;23;20420;-69
2022/03/16 00:34:47;;;;;;;17.80;14.63;;;5.20;99.90;;;;;;6002847;23;20806;-68
2022/03/16 00:37:36;;;;;;;17.63;14.03;;;5.20;99.90;;;;;;6005516;23;20417;-68
2022/03/16 00:40:24;;;;;;;16.10;12.90;;;5.10;99.90;;;;;;6002706;23;20442;-69
2022/03/16 00:43:14;;;;;;;16.80;13.50;;;5.10;99.90;;;;;;6005608;23;20461;-68
2022/03/16 00:46:02;;;;;;;16.30;12.93;;;5.10;99.90;;;;;;6005241;23;20497;-68
2022/03/16 00:48:51;;;;;;;19.53;14.43;;;5.00;99.90;;;;;;5996746;23;20448;-68
2022/03/16 00:51:39;;;;;;;20.23;15.13;;;5.00;99.90;;;;;;6006537;23;20450;-68
2022/03/16 00:54:27;;;;;;;17.57;14.10;;;5.00;99.90;;;;;;5993243;23;20457;-68
2022/03/16 00:57:16;;;;;;;19.93;15.47;;;5.00;99.90;;;;;;5975091;24;20449;-68
2022/03/16 01:00:08;;;;;;;17.27;15.07;;;4.90;99.90;;;;;;5988174;24;20450;-68
2022/03/16 01:02:56;;;;;;;19.33;14.20;;;4.90;99.90;;;;;;5977341;24;20438;-68
2022/03/16 01:05:45;;;;;;;17.43;15.00;;;4.90;99.90;;;;;;5969046;24;20961;-68
2022/03/16 01:08:33;;;;;;;16.17;14.50;;;4.90;99.90;;;;;;5979427;24;20491;-68
2022/03/16 01:11:21;;;;;;;16.93;13.90;;;4.90;99.90;;;;;;5988754;24;20418;-68
2022/03/16 01:14:09;;;;;;;17.10;15.30;;;4.90;99.90;;;;;;5981918;24;20454;-68
2022/03/16 01:16:59;;;;;;;20.37;17.57;;;4.90;99.90;;;;;;5977824;24;20526;-68
2022/03/16 01:19:47;;;;;;;20.40;17.33;;;4.90;99.90;;;;;;5980516;24;20796;-68
2022/03/16 01:22:35;;;;;;;20.57;17.50;;;4.90;99.90;;;;;;5978210;24;21060;-68
2022/03/16 01:25:23;;;;;;;19.83;16.47;;;4.90;99.90;;;;;;5971661;24;20685;-68
2022/03/16 01:28:11;;;;;;;19.13;16.57;;;4.90;99.90;;;;;;5976506;24;20520;-68
2022/03/16 01:31:01;;;;;;;17.53;15.53;;;5.00;99.90;;;;;;5977149;24;20502;-68
2022/03/16 01:33:51;;;;;;;17.67;15.77;;;5.00;99.90;;;;;;5974886;24;20611;-71
2022/03/16 01:36:39;;;;;;;18.97;14.80;;;5.10;99.90;;;;;;5996922;24;20426;-69
2022/03/16 01:39:27;;;;;;;17.17;15.37;;;5.10;99.90;;;;;;5994592;24;20495;-68
2022/03/16 01:42:16;;;;;;;17.63;15.47;;;5.10;99.90;;;;;;5975043;24;20523;-68
2022/03/16 01:45:05;;;;;;;17.20;15.40;;;5.10;99.90;;;;;;5976152;24;20461;-68
2022/03/16 01:47:53;;;;;;;19.80;16.10;;;5.20;99.90;;;;;;5975228;24;20830;-68
2022/03/16 01:50:42;;;;;;;22.47;18.93;;;5.20;99.90;;;;;;5976285;24;20414;-67
2022/03/16 01:53:31;;;;;;;26.93;21.33;;;5.20;99.90;;;;;;5976783;24;21210;-68
2022/03/16 01:56:19;;;;;;;30.00;22.93;;;5.20;99.90;;;;;;6002481;23;20441;-68
2022/03/16 01:59:08;;;;;;;21.60;19.23;;;5.20;99.90;;;;;;6005254;23;20490;-68
2022/03/16 02:01:56;;;;;;;23.67;19.30;;;5.20;99.90;;;;;;6004374;23;20924;-68
2022/03/16 02:04:44;;;;;;;25.00;19.27;;;5.20;99.90;;;;;;6003074;23;20533;-68
2022/03/16 02:07:34;;;;;;;24.00;18.73;;;5.30;99.90;;;;;;6005374;23;20586;-67
2022/03/16 02:10:23;;;;;;;24.83;20.17;;;5.20;99.90;;;;;;6004926;23;20509;-68
2022/03/16 02:13:11;;;;;;;22.60;18.60;;;5.20;99.90;;;;;;5996675;23;20455;-67
2022/03/16 02:15:59;;;;;;;27.30;20.53;;;5.30;99.90;;;;;;5998887;23;20445;-68
2022/03/16 02:18:48;;;;;;;27.50;21.07;;;5.30;99.90;;;;;;6004698;23;20459;-68
2022/03/16 02:21:39;;;;;;;28.07;21.83;;;5.30;99.90;;;;;;6003203;23;20528;-68
2022/03/16 02:24:29;;;;;;;29.03;21.70;;;5.40;99.90;;;;;;6005019;23;20521;-68
2022/03/16 02:27:18;;;;;;;26.20;21.27;;;5.40;99.90;;;;;;6013862;23;20421;-68
2022/03/16 02:30:07;;;;;;;30.80;23.13;;;5.40;99.90;;;;;;5995156;23;20505;-68
2022/03/16 02:32:56;;;;;;;27.07;22.13;;;5.40;99.90;;;;;;6015129;23;20789;-69
2022/03/16 02:35:45;;;;;;;30.30;23.37;;;5.40;99.90;;;;;;6004087;23;20525;-68
2022/03/16 02:38:33;;;;;;;32.30;24.00;;;5.40;99.90;;;;;;6013748;23;20501;-68
2022/03/16 02:41:23;;;;;;;28.73;24.20;;;5.40;99.90;;;;;;5997137;23;21157;-70
2022/03/16 02:44:11;;;;;;;30.47;25.00;;;5.50;99.90;;;;;;6011530;23;20450;-68
2022/03/16 02:46:59;;;;;;;28.40;23.80;;;5.50;99.90;;;;;;6004654;23;20505;-68
2022/03/16 02:49:48;;;;;;;28.03;22.90;;;5.50;99.90;;;;;;6012145;23;20499;-68
2022/03/16 02:52:36;;;;;;;33.60;24.60;;;5.50;99.90;;;;;;6003978;23;21064;-68
2022/03/16 02:55:27;;;;;;;25.80;21.80;;;5.50;99.90;;;;;;6003528;23;20832;-68
2022/03/16 02:58:17;;;;;;;26.83;21.43;;;5.40;99.90;;;;;;5997837;23;20497;-68
2022/03/16 03:01:05;;;;;;;27.73;21.53;;;5.40;99.90;;;;;;6006173;23;20505;-68
2022/03/16 03:03:54;;;;;;;24.07;21.37;;;5.40;99.90;;;;;;5995735;23;20449;-68
2022/03/16 03:06:42;;;;;;;25.43;19.37;;;5.30;99.90;;;;;;6003598;23;20498;-68
2022/03/16 03:09:30;;;;;;;25.47;20.20;;;5.30;99.90;;;;;;6002958;23;20583;-68
2022/03/16 03:12:18;;;;;;;23.23;19.17;;;5.20;99.90;;;;;;6005122;23;20477;-70
2022/03/16 03:15:10;;;;;;;28.63;20.30;;;5.20;99.90;;;;;;5980260;24;20446;-67
2022/03/16 03:17:58;;;;;;;28.07;20.73;;;5.10;99.90;;;;;;5975896;24;20414;-68
2022/03/16 03:20:46;;;;;;;23.10;19.77;;;5.10;99.90;;;;;;5975007;24;20482;-68
2022/03/16 03:23:34;;;;;;;25.60;19.93;;;5.00;99.90;;;;;;5959133;24;20490;-68
2022/03/16 03:26:22;;;;;;;25.93;19.47;;;5.00;99.90;;;;;;5976540;24;20430;-68
2022/03/16 03:29:11;;;;;;;21.50;18.53;;;4.90;99.90;;;;;;5975841;24;20872;-68
2022/03/16 03:32:00;;;;;;;24.90;20.10;;;4.90;99.90;;;;;;5975871;24;20442;-68
2022/03/16 03:34:51;;;;;;;24.10;19.37;;;4.80;99.90;;;;;;5976760;23;20940;-68
2022/03/16 03:37:39;;;;;;;25.10;19.67;;;4.80;99.90;;;;;;5975626;24;20426;-68
2022/03/16 03:40:28;;;;;;;24.37;20.30;;;4.80;99.90;;;;;;5972908;23;20422;-67
2022/03/16 03:43:16;;;;;;;23.20;19.60;;;4.70;99.90;;;;;;5972975;24;20518;-69
2022/03/16 03:46:04;;;;;;;24.40;20.37;;;4.70;99.90;;;;;;5976215;24;20886;-68
2022/03/16 03:48:54;;;;;;;24.13;19.03;;;4.60;99.90;;;;;;5977983;23;20850;-69
2022/03/16 03:51:42;;;;;;;25.23;18.47;;;4.60;99.90;;;;;;5973770;24;20457;-68
2022/03/16 03:54:31;;;;;;;23.20;18.83;;;4.60;99.90;;;;;;5978472;23;21303;-68
2022/03/16 03:57:19;;;;;;;22.33;18.10;;;4.50;99.90;;;;;;5975713;24;21160;-68
2022/03/16 04:00:08;;;;;;;23.27;18.73;;;4.50;99.90;;;;;;5967657;24;20583;-68
2022/03/16 04:02:57;;;;;;;21.83;17.93;;;4.50;99.90;;;;;;5976558;24;20509;-68
2022/03/16 04:05:46;;;;;;;23.70;18.20;;;4.40;99.90;;;;;;5975022;23;20974;-68
2022/03/16 04:08:34;;;;;;;21.70;17.37;;;4.40;99.90;;;;;;5975845;24;20833;-68
2022/03/16 04:11:22;;;;;;;23.13;20.47;;;4.30;99.90;;;;;;5974559;24;20510;-68
2022/03/16 04:14:11;;;;;;;23.40;19.30;;;4.30;99.90;;;;;;5992281;23;20521;-67
2022/03/16 04:16:59;;;;;;;23.90;18.83;;;4.30;99.90;;;;;;6006317;23;20616;-71
2022/03/16 04:19:47;;;;;;;21.83;18.60;;;4.30;99.90;;;;;;6005214;23;20424;-68
2022/03/16 04:22:37;;;;;;;21.33;17.83;;;4.30;99.90;;;;;;6021400;23;21140;-68
2022/03/16 04:25:25;;;;;;;20.50;16.93;;;4.30;99.90;;;;;;6016188;23;21233;-68
2022/03/16 04:28:14;;;;;;;20.90;17.13;;;4.20;99.90;;;;;;6008696;23;20485;-68
2022/03/16 04:31:02;;;;;;;24.13;19.17;;;4.20;99.90;;;;;;6004663;23;20481;-68
2022/03/16 04:33:51;;;;;;;22.53;18.00;;;4.20;99.90;;;;;;6007842;23;20430;-68
2022/03/16 04:36:39;;;;;;;21.30;16.73;;;4.10;99.90;;;;;;6018171;23;20513;-68
2022/03/16 04:39:29;;;;;;;25.07;17.50;;;4.10;99.90;;;;;;5981441;23;21176;-68
2022/03/16 04:42:17;;;;;;;25.23;18.10;;;4.00;99.90;;;;;;5999808;23;20445;-68
2022/03/16 04:45:06;;;;;;;25.27;19.53;;;4.00;99.90;;;;;;6004727;23;20525;-68
2022/03/16 04:47:54;;;;;;;24.70;18.80;;;4.00;99.90;;;;;;6006544;23;20832;-68
2022/03/16 04:50:42;;;;;;;24.50;18.40;;;4.00;99.90;;;;;;6006968;23;20497;-68
2022/03/16 04:53:31;;;;;;;24.43;18.70;;;4.00;99.90;;;;;;6015284;23;20441;-68
2022/03/16 04:56:20;;;;;;;24.63;18.60;;;3.90;99.90;;;;;;6006513;23;20528;-68
2022/03/16 04:59:08;;;;;;;21.73;17.73;;;3.90;99.90;;;;;;6007630;23;20441;-68
2022/03/16 05:01:56;;;;;;;22.90;18.30;;;3.80;99.90;;;;;;6010448;23;20486;-68
2022/03/16 05:04:44;;;;;;;23.83;18.30;;;3.80;99.90;;;;;;6009470;23;21020;-68
2022/03/16 05:07:33;;;;;;;20.90;17.50;;;3.80;99.90;;;;;;6009596;23;20421;-68
2022/03/16 05:10:21;;;;;;;23.30;18.50;;;3.80;99.90;;;;;;6006857;23;20417;-68
2022/03/16 05:13:11;;;;;;;26.17;18.90;;;3.80;99.90;;;;;;6005159;23;20525;-69
2022/03/16 05:15:59;;;;;;;24.00;17.23;;;3.80;99.90;;;;;;6006178;23;20441;-68
2022/03/16 05:18:47;;;;;;;22.67;17.67;;;3.70;99.90;;;;;;6008473;23;20443;-68
2022/03/16 05:21:36;;;;;;;25.77;18.40;;;3.70;99.90;;;;;;5993546;23;21329;-68
2022/03/16 05:24:26;;;;;;;27.43;18.40;;;3.70;99.90;;;;;;6004061;23;20524;-68
2022/03/16 05:27:14;;;;;;;24.90;18.17;;;3.60;99.90;;;;;;6005327;23;20534;-68
2022/03/16 05:30:05;;;;;;;22.50;18.00;;;3.60;99.90;;;;;;6007839;23;20420;-67
2022/03/16 05:32:54;;;;;;;23.83;18.50;;;3.60;99.90;;;;;;6005657;23;20438;-68
2022/03/16 05:35:43;;;;;;;23.40;17.97;;;3.50;99.90;;;;;;6005233;23;20494;-68
2022/03/16 05:38:31;;;;;;;21.17;17.30;;;3.50;99.90;;;;;;6007751;23;20477;-68
2022/03/16 05:41:19;;;;;;;22.57;17.70;;;3.50;99.90;;;;;;5996488;23;20441;-68
2022/03/16 05:44:09;;;;;;;20.40;17.33;;;3.50;99.90;;;;;;6004791;23;20999;-68
2022/03/16 05:46:59;;;;;;;21.30;16.37;;;3.50;99.90;;;;;;6007707;23;20413;-68
2022/03/16 05:49:47;;;;;;;24.90;16.70;;;3.60;99.90;;;;;;6007859;23;20426;-68
2022/03/16 05:52:36;;;;;;;24.13;17.40;;;3.60;99.90;;;;;;6006413;23;20482;-68
2022/03/16 05:55:24;;;;;;;21.43;16.10;;;3.60;99.90;;;;;;6006785;23;20533;-68
2022/03/16 05:58:12;;;;;;;26.17;17.87;;;3.60;99.90;;;;;;6007604;23;20858;-68
2022/03/16 06:01:00;;;;;;;22.50;17.13;;;3.60;99.90;;;;;;5997402;23;20436;-68
2022/03/16 06:03:50;;;;;;;21.53;18.70;;;3.60;99.90;;;;;;6012951;23;20450;-68
2022/03/16 06:06:38;;;;;;;23.00;17.60;;;3.70;99.90;;;;;;6015868;23;20420;-68
2022/03/16 06:09:26;;;;;;;21.83;17.37;;;3.60;99.90;;;;;;6006331;23;20562;-68
2022/03/16 06:12:14;;;;;;;22.73;17.90;;;3.50;99.90;;;;;;6004734;23;20497;-68
2022/03/16 06:15:03;;;;;;;23.67;18.47;;;3.50;99.90;;;;;;6007247;23;20473;-68
2022/03/16 06:17:52;;;;;;;25.57;18.20;;;3.50;99.90;;;;;;6005847;23;20465;-68
2022/03/16 06:20:41;;;;;;;26.17;18.50;;;3.40;99.90;;;;;;6015041;23;20470;-68
2022/03/16 06:23:29;;;;;;;23.90;18.73;;;3.40;99.90;;;;;;6006777;23;20545;-68
2022/03/16 06:26:18;;;;;;;23.33;17.57;;;3.40;99.90;;;;;;6006954;23;20493;-68
2022/03/16 06:29:06;;;;;;;25.93;17.20;;;3.50;99.90;;;;;;6005836;23;20800;-68
2022/03/16 06:31:54;;;;;;;21.70;17.50;;;3.50;99.90;;;;;;6010166;23;20499;-68
2022/03/16 06:34:42;;;;;;;22.13;17.77;;;3.50;99.90;;;;;;6019680;23;21011;-67
2022/03/16 06:37:32;;;;;;;24.30;18.77;;;3.60;99.90;;;;;;6009685;23;20443;-68
2022/03/16 06:40:20;;;;;;;22.97;17.10;;;3.70;99.90;;;;;;6007695;23;20501;-68
2022/03/16 06:43:08;;;;;;;25.97;19.80;;;3.70;99.90;;;;;;6017098;23;20540;-67
2022/03/16 06:45:57;;;;;;;24.97;18.17;;;3.80;99.90;;;;;;5961047;23;20504;-68
2022/03/16 06:48:45;;;;;;;20.30;17.50;;;3.90;99.90;;;;;;5979462;24;20419;-68
2022/03/16 06:51:33;;;;;;;23.93;17.80;;;4.00;99.90;;;;;;5979120;24;20426;-68
2022/03/16 06:54:22;;;;;;;23.60;18.10;;;4.10;99.90;;;;;;5981575;23;20485;-67
2022/03/16 06:57:11;;;;;;;22.70;18.10;;;4.20;99.90;;;;;;6016723;23;20417;-69
2022/03/16 07:00:19;;;;;;;26.90;19.60;;;4.30;99.90;;;;;;6005449;23;20417;-68
2022/03/16 07:03:07;;;;;;;25.67;19.13;;;4.50;99.90;;;;;;6016139;23;20514;-69
2022/03/16 07:05:56;;;;;;;26.37;20.50;;;4.60;99.90;;;;;;6013856;23;20450;-68
2022/03/16 07:08:44;;;;;;;28.60;21.30;;;4.70;99.90;;;;;;6024780;23;20445;-68
2022/03/16 07:11:33;;;;;;;30.57;20.03;;;4.80;99.90;;;;;;6015281;23;20530;-68
2022/03/16 07:14:34;;;;;;;29.23;21.00;;;4.90;99.90;;;;;;6006284;23;20524;-68
2022/03/16 07:17:22;;;;;;;26.87;20.43;;;5.00;99.90;;;;;;6007534;23;20425;-68
2022/03/16 07:20:11;;;;;;;25.77;21.10;;;5.10;99.90;;;;;;6017079;23;20418;-68
2022/03/16 07:23:04;;;;;;;29.60;21.90;;;5.10;99.90;;;;;;6005329;23;20967;-68
2022/03/16 07:25:55;;;;;;;26.93;19.43;;;5.20;99.90;;;;;;6005659;23;20453;-68
2022/03/16 07:28:45;;;;;;;28.97;21.67;;;5.20;99.90;;;;;;6005308;23;21209;-68
2022/03/16 07:31:34;;;;;;;29.30;20.87;;;5.30;99.90;;;;;;5994021;23;20845;-68
2022/03/16 07:34:22;;;;;;;27.67;22.07;;;5.40;99.90;;;;;;5998300;23;20626;-68
2022/03/16 07:37:11;;;;;;;30.90;20.77;;;5.40;99.90;;;;;;6005753;23;20421;-69
2022/03/16 07:39:59;;;;;;;30.63;20.20;;;5.50;99.90;;;;;;6005861;23;20820;-69
2022/03/16 07:42:54;;;;;;;27.77;20.50;;;5.50;99.90;;;;;;6002319;23;20928;-67
2022/03/16 07:45:44;;;;;;;30.80;20.77;;;5.60;99.90;;;;;;6004786;23;20536;-69
2022/03/16 07:48:34;;;;;;;29.00;21.93;;;5.70;99.90;;;;;;6013885;23;20445;-68
2022/03/16 07:51:22;;;;;;;30.77;20.83;;;5.80;99.90;;;;;;5997817;23;20551;-68
2022/03/16 07:54:10;;;;;;;28.10;20.37;;;5.80;99.90;;;;;;6002648;23;20477;-68
2022/03/16 07:56:59;;;;;;;31.70;20.10;;;5.90;99.90;;;;;;6005837;23;20880;-68
2022/03/16 07:59:47;;;;;;;28.23;19.90;;;5.90;99.90;;;;;;6006419;23;20442;-68
2022/03/16 08:02:37;;;;;;;29.60;21.23;;;6.00;99.90;;;;;;6003165;23;20437;-69
2022/03/16 08:05:25;;;;;;;25.10;19.10;;;6.10;99.90;;;;;;6004563;23;20514;-68
2022/03/16 08:08:13;;;;;;;25.53;18.30;;;6.10;99.90;;;;;;6005270;23;20500;-68
2022/03/16 08:11:01;;;;;;;25.83;18.23;;;6.20;99.90;;;;;;5982864;23;21056;-68
2022/03/16 08:13:49;;;;;;;24.97;18.47;;;6.20;99.90;;;;;;6003058;23;20485;-68
2022/03/16 08:16:38;;;;;;;27.03;18.00;;;6.30;99.90;;;;;;6006771;23;20839;-68
2022/03/16 08:19:28;;;;;;;24.80;17.27;;;6.40;99.90;;;;;;6005855;23;20448;-68
2022/03/16 08:22:25;;;;;;;23.30;16.50;;;6.40;99.90;;;;;;6005187;23;20496;-68
2022/03/16 08:25:13;;;;;;;22.73;15.77;;;6.40;99.90;;;;;;5984039;23;20478;-69
2022/03/16 08:28:01;;;;;;;24.93;15.90;;;6.50;99.90;;;;;;6006003;23;20475;-69
2022/03/16 08:30:49;;;;;;;21.03;16.47;;;6.70;99.90;;;;;;6006617;23;20558;-68
2022/03/16 08:33:38;;;;;;;18.77;14.97;;;6.90;99.90;;;;;;5992203;23;20441;-68
2022/03/16 08:36:27;;;;;;;21.07;15.83;;;7.10;99.90;;;;;;6005517;23;20469;-71
2022/03/16 08:39:15;;;;;;;22.50;16.33;;;7.10;99.90;;;;;;6005958;23;20984;-68
2022/03/16 08:42:06;;;;;;;21.87;16.23;;;7.20;99.90;;;;;;6015079;23;20549;-68
2022/03/16 08:44:54;;;;;;;22.20;15.03;;;7.30;99.90;;;;;;6005000;23;20497;-68
2022/03/16 08:47:43;;;;;;;20.83;16.43;;;7.40;99.90;;;;;;6005313;23;20494;-69
2022/03/16 08:50:31;;;;;;;16.80;14.00;;;7.50;99.90;;;;;;6005625;23;20981;-68
2022/03/16 08:53:20;;;;;;;19.80;14.47;;;7.70;99.90;;;;;;5996732;23;20441;-69
2022/03/16 08:56:12;;;;;;;19.73;15.80;;;7.80;99.90;;;;;;6004801;23;20778;-68
2022/03/16 08:59:00;;;;;;;21.77;13.70;;;7.90;99.90;;;;;;6005954;23;20418;-69
2022/03/16 09:01:49;;;;;;;17.10;13.87;;;7.90;99.90;;;;;;6015481;23;20421;-68
2022/03/16 09:04:38;;;;;;;19.50;15.00;;;8.10;99.90;;;;;;5993129;23;20461;-68
2022/03/16 09:07:26;;;;;;;19.43;13.80;;;8.20;99.90;;;;;;5985936;24;20418;-69
2022/03/16 09:10:15;;;;;;;16.33;12.63;;;8.30;99.90;;;;;;5976893;24;21039;-68
2022/03/16 09:13:04;;;;;;;17.80;14.50;;;8.40;99.90;;;;;;5973121;24;20454;-69
2022/03/16 09:15:59;;;;;;;20.00;13.33;;;8.50;99.90;;;;;;5978599;24;20952;-69
2022/03/16 09:18:48;;;;;;;16.20;13.13;;;8.60;99.90;;;;;;5979861;24;20418;-68
2022/03/16 09:21:36;;;;;;;19.87;14.03;;;8.70;99.90;;;;;;5977932;24;20419;-68
2022/03/16 09:24:25;;;;;;;18.60;14.10;;;8.70;99.90;;;;;;5977514;24;20490;-69
2022/03/16 09:27:16;;;;;;;17.23;13.40;;;8.70;99.90;;;;;;5977791;24;20419;-69
2022/03/16 09:30:06;;;;;;;16.20;12.50;;;8.80;99.90;;;;;;5973401;24;20562;-69
2022/03/16 09:32:57;;;;;;;17.20;13.57;;;8.90;99.90;;;;;;5977068;24;20434;-69
2022/03/16 09:35:45;;;;;;;16.93;13.03;;;9.00;99.90;;;;;;5977649;24;20454;-69
2022/03/16 09:38:39;;;;;;;16.77;12.53;;;9.10;99.90;;;;;;5979540;24;20450;-68
2022/03/16 09:41:28;;;;;;;15.00;12.33;;;9.20;99.90;;;;;;5975355;24;20431;-69
2022/03/16 09:44:18;;;;;;;15.50;12.37;;;9.30;99.90;;;;;;5977036;24;20470;-69
2022/03/16 09:47:08;;;;;;;14.20;12.10;;;9.50;99.90;;;;;;5976296;24;20415;-69
2022/03/16 09:49:57;;;;;;;15.20;11.97;;;9.60;99.90;;;;;;5971303;24;20419;-70
2022/03/16 09:52:46;;;;;;;14.40;12.07;;;9.70;99.90;;;;;;5978446;24;20475;-69
2022/03/16 09:55:35;;;;;;;14.20;11.53;;;9.90;99.90;;;;;;5978827;24;20850;-69
2022/03/16 09:58:23;;;;;;;15.70;11.20;;;10.00;99.90;;;;;;5976195;24;20427;-72
2022/03/16 10:01:13;;;;;;;14.10;11.37;;;10.00;99.90;;;;;;5991647;24;20984;-69
2022/03/16 10:04:05;;;;;;;14.90;11.57;;;10.00;99.90;;;;;;5994362;24;20446;-69
2022/03/16 10:06:55;;;;;;;14.60;10.30;;;10.00;99.90;;;;;;5982895;24;20822;-69
2022/03/16 10:16:11;;;;;;;12.63;11.30;;;10.40;99.90;;;;;;5976912;24;21020;-69
2022/03/16 10:19:01;;;;;;;13.90;10.60;;;10.50;99.90;;;;;;5978854;24;20502;-69
2022/03/16 10:21:58;;;;;;;12.17;10.67;;;10.70;99.90;;;;;;5976713;24;20478;-69
2022/03/16 10:24:46;;;;;;;13.37;9.80;;;10.70;99.90;;;;;;5977167;24;20454;-69
2022/03/16 10:27:37;;;;;;;12.00;9.77;;;10.60;99.90;;;;;;5978112;24;20474;-69
2022/03/16 10:30:29;;;;;;;10.83;8.90;;;10.60;99.90;;;;;;5949656;24;20486;-69
2022/03/16 10:33:19;;;;;;;12.10;8.90;;;10.70;99.90;;;;;;5977168;24;20442;-69
2022/03/16 10:36:11;;;;;;;8.90;7.53;;;10.70;99.90;;;;;;5978128;24;20517;-69
2022/03/16 10:39:03;;;;;;;10.17;8.17;;;10.80;99.90;;;;;;5977568;24;20576;-69
2022/03/16 10:48:22;;;;;;;11.00;7.83;;;10.90;99.90;;;;;;5977738;24;20440;-69
2022/03/16 10:51:13;;;;;;;11.53;8.40;;;10.90;99.90;;;;;;5968251;24;20422;-69
2022/03/16 10:54:03;;;;;;;12.67;7.90;;;11.00;99.90;;;;;;5977277;24;20525;-69
2022/03/16 10:56:53;;;;;;;11.80;8.47;;;11.10;99.90;;;;;;5977026;24;20501;-69
2022/03/16 10:59:43;;;;;;;10.07;8.23;;;11.20;99.90;;;;;;5975163;24;20467;-69
2022/03/16 11:02:34;;;;;;;8.90;7.60;;;11.20;99.90;;;;;;5977048;24;20487;-69
2022/03/16 11:05:23;;;;;;;12.43;7.10;;;11.30;99.90;;;;;;5976768;24;20472;-68
2022/03/16 11:08:14;;;;;;;11.50;7.63;;;11.30;99.90;;;;;;5972745;24;20496;-69
2022/03/16 11:13:27;;;;;;;10.17;7.83;;;11.30;99.90;;;;;;5974755;24;20497;-69
2022/03/16 11:14:11;;;;;;;9.27;7.00;;;11.40;99.90;;;;;;5975606;24;20445;-69
2022/03/16 11:17:00;;;;;;;11.00;7.40;;;11.50;99.90;;;;;;5977584;24;20415;-69
2022/03/16 11:19:51;;;;;;;9.07;7.30;;;11.60;99.90;;;;;;5976225;24;20476;-69
2022/03/16 11:24:15;;;;;;;11.50;7.40;;;11.60;99.90;;;;;;5976895;24;20446;-69
2022/03/16 11:26:14;;;;;;;7.87;6.60;;;11.60;99.90;;;;;;5968757;24;20660;-69
2022/03/16 11:29:13;;;;;;;11.23;6.97;;;11.50;99.90;;;;;;5976651;24;20543;-69
2022/03/16 11:32:10;;;;;;;8.33;6.27;;;11.50;99.90;;;;;;5975563;24;20555;-69
2022/03/16 11:35:00;;;;;;;8.73;7.73;;;11.50;99.90;;;;;;5974692;23;20510;-69
2022/03/16 11:37:50;;;;;;;8.83;7.07;;;11.60;99.90;;;;;;5978932;24;20819;-69
2022/03/16 11:40:41;;;;;;;11.77;6.93;;;11.50;99.90;;;;;;5965793;24;20501;-68
2022/03/16 11:43:30;;;;;;;9.30;7.10;;;11.60;99.90;;;;;;5972762;24;20479;-69
2022/03/16 11:46:29;;;;;;;9.20;7.20;;;11.70;99.90;;;;;;6004626;23;20465;-69
2022/03/16 11:49:28;;;;;;;8.20;6.97;;;11.60;99.90;;;;;;6005409;23;20416;-69
2022/03/16 11:52:17;;;;;;;7.30;6.27;;;11.60;99.90;;;;;;6004933;23;20900;-69
2022/03/16 11:55:05;;;;;;;8.37;6.60;;;11.60;99.90;;;;;;6005046;23;20981;-69
2022/03/16 11:57:54;;;;;;;8.13;6.30;;;11.70;99.90;;;;;;6004439;23;20504;-69
2022/03/16 12:00:44;;;;;;;7.67;5.90;;;11.70;99.90;;;;;;6002761;23;20421;-69
2022/03/16 12:03:43;;;;;;;7.70;5.97;;;11.70;99.90;;;;;;6005252;23;20835;-68
2022/03/16 12:06:50;;;;;;;6.97;5.30;;;11.80;99.90;;;;;;6005435;23;20446;-69
2022/03/16 12:09:42;;;;;;;8.43;6.43;;;11.80;99.90;;;;;;6002735;23;20531;-68
2022/03/16 12:15:41;;;;;;;6.87;4.60;;;11.70;99.90;;;;;;5977099;24;20552;-69
2022/03/16 12:18:31;;;;;;;7.00;6.30;;;11.80;99.90;;;;;;5976759;24;20415;-70
2022/03/16 12:21:27;;;;;;;8.03;6.03;;;11.90;99.90;;;;;;5968719;24;20454;-69
2022/03/16 12:30:28;;;;;;;9.43;6.70;;;12.30;99.90;;;;;;5988393;24;20490;-69
2022/03/16 12:33:19;;;;;;;9.37;5.73;;;12.40;99.90;;;;;;5991190;24;20525;-69
2022/03/16 12:36:11;;;;;;;10.60;6.40;;;12.40;99.90;;;;;;5993452;24;20480;-69
2022/03/16 12:39:03;;;;;;;7.07;6.37;;;12.50;99.90;;;;;;5971928;24;20429;-69
2022/03/16 12:45:09;;;;;;;9.50;7.87;;;12.60;99.90;;;;;;5990537;24;20466;-69
2022/03/16 12:48:10;;;;;;;10.30;7.87;;;12.70;99.90;;;;;;5985890;24;20579;-69
2022/03/16 12:50:58;;;;;;;7.80;7.00;;;12.80;99.90;;;;;;5968092;24;20558;-69
2022/03/16 12:53:48;;;;;;;10.87;7.50;;;13.10;99.90;;;;;;5985434;24;20434;-69
2022/03/16 12:56:40;;;;;;;8.40;7.03;;;13.20;99.90;;;;;;5978338;24;20449;-69
2022/03/16 12:59:30;;;;;;;11.20;7.17;;;13.40;99.90;;;;;;5986649;24;20472;-69
2022/03/16 13:02:20;;;;;;;7.53;6.83;;;13.40;99.90;;;;;;5994055;24;20422;-69
2022/03/16 13:05:10;;;;;;;8.00;7.20;;;13.50;99.90;;;;;;5979109;24;20456;-69
2022/03/16 13:07:58;;;;;;;8.70;6.93;;;13.60;99.90;;;;;;5979026;24;20516;-69
2022/03/16 13:14:02;;;;;;;8.00;7.20;;;14.10;99.90;;;;;;5992874;23;20441;-69
2022/03/16 13:16:55;;;;;;;8.87;7.97;;;14.20;99.90;;;;;;6006254;23;20462;-70
2022/03/16 13:19:46;;;;;;;8.93;7.00;;;14.50;99.90;;;;;;6008799;23;20448;-69
2022/03/16 13:22:34;;;;;;;12.07;7.77;;;14.50;99.90;;;;;;6005981;23;20479;-69
2022/03/16 13:25:23;;;;;;;8.80;7.80;;;14.40;99.90;;;;;;6005596;23;20845;-69
2022/03/16 13:28:13;;;;;;;9.23;8.40;;;14.20;99.90;;;;;;6002934;23;20420;-70
2022/03/16 13:31:01;;;;;;;9.20;8.30;;;14.10;99.90;;;;;;6004926;23;20565;-69
2022/03/16 13:33:50;;;;;;;9.17;7.93;;;14.00;99.90;;;;;;6005695;23;20433;-70
2022/03/16 13:36:44;;;;;;;9.83;8.20;;;13.90;99.90;;;;;;6006168;23;20509;-70
2022/03/16 13:39:32;;;;;;;10.73;8.17;;;13.70;99.90;;;;;;6003294;23;20477;-69
2022/03/16 13:42:21;;;;;;;8.90;8.00;;;13.50;99.90;;;;;;6002631;23;20542;-69
2022/03/16 13:45:17;;;;;;;8.70;7.80;;;13.40;99.90;;;;;;6001830;23;20478;-69
2022/03/16 13:48:11;;;;;;;9.40;7.80;;;13.20;99.90;;;;;;6004920;23;20505;-69
2022/03/16 13:51:05;;;;;;;7.90;7.10;;;13.10;99.90;;;;;;6006112;23;20409;-70
2022/03/16 13:53:53;;;;;;;9.60;8.23;;;12.90;99.90;;;;;;6004113;23;20452;-70
2022/03/16 13:56:42;;;;;;;9.67;8.60;;;12.80;99.90;;;;;;6008038;23;20434;-69
2022/03/16 13:59:30;;;;;;;8.63;7.83;;;12.70;99.90;;;;;;6015886;23;20425;-70
2022/03/16 14:02:34;;;;;;;10.40;8.80;;;12.60;99.90;;;;;;5994070;23;20770;-70
2022/03/16 14:05:23;;;;;;;10.47;9.37;;;12.50;99.90;;;;;;6005870;23;20457;-69
2022/03/16 14:08:12;;;;;;;11.33;9.57;;;12.50;99.90;;;;;;6019290;23;21236;-70
2022/03/16 14:11:00;;;;;;;10.80;8.50;;;12.50;99.90;;;;;;6008326;23;20808;-70
2022/03/16 14:13:53;;;;;;;10.70;8.00;;;12.40;99.90;;;;;;5986079;23;20594;-72
2022/03/16 14:16:44;;;;;;;9.63;8.63;;;12.50;99.90;;;;;;6015504;23;20932;-70
2022/03/16 14:19:38;;;;;;;9.47;8.47;;;12.50;99.90;;;;;;6006663;23;20425;-70
2022/03/16 14:22:27;;;;;;;9.93;8.97;;;12.40;99.90;;;;;;5992489;23;20453;-70
2022/03/16 14:25:17;;;;;;;10.37;9.07;;;12.40;99.90;;;;;;6003717;23;20536;-70
2022/03/16 14:28:07;;;;;;;12.17;9.80;;;12.40;99.90;;;;;;6005885;23;20582;-69
2022/03/16 14:30:55;;;;;;;10.57;9.53;;;12.40;99.90;;;;;;6006785;23;20413;-70
2022/03/16 14:33:43;;;;;;;12.43;9.80;;;12.40;99.90;;;;;;6004075;23;20462;-70
2022/03/16 14:36:33;;;;;;;15.10;10.90;;;12.50;99.90;;;;;;6005849;23;20425;-69
2022/03/16 14:39:41;;;;;;;11.60;10.03;;;12.50;99.90;;;;;;6005624;23;20422;-69
2022/03/16 14:42:29;;;;;;;11.97;10.23;;;12.60;99.90;;;;;;5996629;23;20513;-69
2022/03/16 14:45:17;;;;;;;12.17;9.87;;;12.60;99.90;;;;;;6004755;23;20505;-69
2022/03/16 14:48:06;;;;;;;12.57;11.27;;;12.70;99.90;;;;;;6005482;23;21256;-69
2022/03/16 14:50:55;;;;;;;11.43;10.23;;;12.80;99.90;;;;;;6006318;23;20470;-69
2022/03/16 14:53:45;;;;;;;14.77;11.17;;;12.80;99.90;;;;;;6002193;23;20437;-69
2022/03/16 14:56:34;;;;;;;14.10;11.00;;;12.60;99.90;;;;;;6005119;23;20428;-69
2022/03/16 14:59:22;;;;;;;13.67;11.07;;;12.60;99.90;;;;;;6005611;23;21008;-69
2022/03/16 15:02:10;;;;;;;14.93;11.50;;;12.60;99.90;;;;;;5997180;23;20501;-69